Time;durP1;ratioP1;P1;durP2;ratioP2;P2;SDS_P1;SDS_P2;PMS_P1;PMS_P2;Temp;Humidity;BMP_temperature;BMP_pressure;BME280_temperature;BME280_humidity;BME280_pressure;Samples;Min_cycle;Max_cycle;Signal;HPM_P1;HPM_P2
2024/03/23 00:02:07;;;;;;;7.25;4.85;;;;;;;11.65;58.19;96048.16;5037937;28;20068;-78
2024/03/23 00:04:36;;;;;;;6.72;4.72;;;;;;;11.64;58.06;96055.19;5037248;28;20083;-78
2024/03/23 00:07:06;;;;;;;6.07;4.72;;;;;;;11.67;58.62;96048.75;5036785;28;20068;-78
2024/03/23 00:09:36;;;;;;;5.97;5.13;;;;;;;11.71;58.01;96058.59;5036728;28;20064;-78
2024/03/23 00:12:06;;;;;;;6.18;4.88;;;;;;;11.72;57.71;96052.41;5052280;28;20056;-78
2024/03/23 00:14:37;;;;;;;5.70;5.00;;;;;;;11.73;58.44;96053.19;5059093;28;20049;-78
2024/03/23 00:17:07;;;;;;;6.93;5.03;;;;;;;11.72;57.77;96043.75;5042831;28;20421;-78
2024/03/23 00:19:37;;;;;;;8.27;4.40;;;;;;;11.71;58.02;96045.53;5037292;28;20052;-78
2024/03/23 00:22:07;;;;;;;6.75;4.47;;;;;;;11.72;57.88;96033.31;5036737;28;20467;-78
2024/03/23 00:24:36;;;;;;;8.25;4.10;;;;;;;11.72;58.51;96031.50;5037004;28;20052;-78
2024/03/23 00:27:07;;;;;;;7.63;5.18;;;;;;;11.71;57.88;96026.47;5035875;28;20057;-78
2024/03/23 00:29:36;;;;;;;5.93;5.00;;;;;;;11.65;57.99;96022.03;5036086;28;20045;-78
2024/03/23 00:32:06;;;;;;;7.60;4.82;;;;;;;11.62;58.80;96018.03;5037427;28;20064;-78
2024/03/23 00:34:36;;;;;;;8.77;5.40;;;;;;;11.61;59.14;96018.22;5036548;28;20060;-78
2024/03/23 00:37:06;;;;;;;5.63;5.03;;;;;;;11.58;58.58;96008.19;5036511;28;20083;-78
2024/03/23 00:39:35;;;;;;;8.30;5.45;;;;;;;11.52;58.26;96002.78;5036129;28;20052;-78
2024/03/23 00:42:06;;;;;;;7.70;5.75;;;;;;;11.46;58.16;95994.94;5042673;28;20053;-78
2024/03/23 00:44:35;;;;;;;6.32;5.13;;;;;;;11.42;58.14;95989.31;5036719;28;20053;-78
2024/03/23 00:47:05;;;;;;;8.07;5.78;;;;;;;11.36;58.24;95986.72;5036133;28;20049;-78
2024/03/23 00:49:35;;;;;;;13.48;8.68;;;;;;;11.28;58.41;95977.25;5035238;28;20041;-78
2024/03/23 00:52:03;;;;;;;11.07;6.10;;;;;;;11.23;58.51;95972.63;5036018;28;20500;-78
2024/03/23 00:54:29;;;;;;;7.53;4.72;;;;;;;11.20;58.46;95969.66;5036003;28;20060;-78
2024/03/23 00:56:55;;;;;;;7.18;4.45;;;;;;;11.17;58.46;95963.00;5033914;28;20512;-78
2024/03/23 00:59:22;;;;;;;10.90;5.28;;;;;;;11.14;58.33;95964.19;5033687;28;20402;-78
2024/03/23 01:01:49;;;;;;;7.50;5.03;;;;;;;11.11;58.36;95958.59;5034210;28;20079;-78
2024/03/23 01:04:14;;;;;;;6.75;4.57;;;;;;;11.07;58.42;95963.41;5033758;28;20061;-78
2024/03/23 01:06:41;;;;;;;6.28;4.35;;;;;;;11.06;58.50;95960.97;5033670;28;20064;-78
2024/03/23 01:09:10;;;;;;;4.70;4.25;;;;;;;11.04;58.73;95953.38;5033987;28;20049;-78
2024/03/23 01:11:37;;;;;;;6.82;4.38;;;;;;;11.05;58.43;95954.16;5034793;28;20053;-78
2024/03/23 01:14:03;;;;;;;6.00;3.83;;;;;;;11.02;58.30;95955.38;5035326;28;20061;-78
2024/03/23 01:16:29;;;;;;;10.15;5.15;;;;;;;10.99;58.30;95947.94;5035212;28;20059;-78
2024/03/23 01:18:55;;;;;;;5.60;4.50;;;;;;;10.96;58.40;95948.34;5035198;28;20053;-78
2024/03/23 01:21:22;;;;;;;5.72;4.60;;;;;;;10.92;58.66;95950.53;5034993;28;20475;-78
2024/03/23 01:23:47;;;;;;;5.75;4.43;;;;;;;10.93;58.56;95938.28;5035340;28;20053;-78
2024/03/23 01:26:15;;;;;;;5.72;4.30;;;;;;;10.91;58.97;95941.13;5034906;28;20148;-78
2024/03/23 01:28:41;;;;;;;8.13;4.13;;;;;;;10.92;58.62;95934.09;5034532;28;20504;-78
2024/03/23 01:31:08;;;;;;;6.90;4.53;;;;;;;10.89;58.53;95935.28;5035219;28;20061;-78
2024/03/23 01:33:33;;;;;;;4.90;3.83;;;;;;;10.92;58.87;95926.25;5034879;28;20053;-78
2024/03/23 01:36:00;;;;;;;8.52;4.63;;;;;;;10.93;58.97;95927.84;5034705;28;20064;-78
2024/03/23 01:38:25;;;;;;;6.15;4.30;;;;;;;10.94;58.85;95921.66;5035130;28;20420;-78
2024/03/23 01:40:57;;;;;;;4.97;3.70;;;;;;;10.99;60.26;95921.84;5034673;28;20057;-78
2024/03/23 01:43:24;;;;;;;6.28;4.05;;;;;;;11.03;58.77;95909.19;5034743;28;20060;-78
2024/03/23 01:45:52;;;;;;;7.60;4.07;;;;;;;11.02;59.28;95902.34;5034548;28;20578;-78
2024/03/23 01:48:19;;;;;;;5.88;4.07;;;;;;;11.03;58.62;95898.75;5035234;28;20056;-78
2024/03/23 01:50:46;;;;;;;7.68;4.63;;;;;;;10.98;58.33;95896.75;5034889;28;20428;-78
2024/03/23 01:53:15;;;;;;;5.32;3.95;;;;;;;10.96;58.47;95890.94;5035709;28;20048;-78
2024/03/23 01:55:41;;;;;;;5.28;4.10;;;;;;;10.98;58.31;95893.34;5035240;28;20057;-78
2024/03/23 01:58:07;;;;;;;5.20;3.92;;;;;;;10.98;58.33;95883.72;5035485;28;20075;-78
2024/03/23 02:00:35;;;;;;;7.65;3.80;;;;;;;11.00;58.19;95892.16;5035451;28;20504;-78
2024/03/23 02:03:01;;;;;;;5.07;4.07;;;;;;;11.05;59.30;95878.50;5036088;28;20059;-78
2024/03/23 02:05:27;;;;;;;7.25;4.28;;;;;;;11.05;58.31;95874.06;5036008;28;20081;-78
2024/03/23 02:07:53;;;;;;;3.50;3.08;;;;;;;11.05;58.53;95873.25;5035356;28;20531;-78
2024/03/23 02:10:20;;;;;;;7.07;3.58;;;;;;;11.05;58.33;95865.44;5034625;28;20053;-78
2024/03/23 02:12:45;;;;;;;5.22;3.75;;;;;;;11.03;58.34;95860.41;5037671;28;20057;-78
2024/03/23 02:15:12;;;;;;;6.15;3.55;;;;;;;11.06;59.12;95862.63;5039485;28;20115;-78
2024/03/23 02:17:39;;;;;;;7.10;3.38;;;;;;;11.09;59.67;95851.78;5039732;28;20067;-78
2024/03/23 02:20:06;;;;;;;5.95;3.92;;;;;;;11.12;59.36;95846.13;5038962;28;20053;-78
2024/03/23 02:22:37;;;;;;;27.25;13.25;;;;;;;11.11;58.46;95835.91;5038904;28;20053;-78
2024/03/23 02:25:06;;;;;;;6.45;4.10;;;;;;;11.08;58.14;95836.31;5038811;28;20053;-78
2024/03/23 02:27:32;;;;;;;5.72;4.22;;;;;;;11.07;58.37;95822.47;5038408;28;20049;-78
2024/03/23 02:29:59;;;;;;;5.85;3.55;;;;;;;11.08;58.25;95829.28;5038078;28;20053;-78
2024/03/23 02:32:25;;;;;;;5.28;3.38;;;;;;;11.08;58.17;95820.66;5038013;28;20413;-78
2024/03/23 02:34:51;;;;;;;5.60;3.22;;;;;;;11.10;58.10;95816.81;5037924;28;20060;-78
2024/03/23 02:37:17;;;;;;;3.85;2.90;;;;;;;11.12;58.26;95814.81;5037868;28;20406;-78
2024/03/23 02:39:44;;;;;;;5.25;3.35;;;;;;;11.16;58.13;95815.22;5037810;28;20060;-79
2024/03/23 02:42:11;;;;;;;4.82;3.10;;;;;;;11.20;58.10;95811.19;5038013;28;20057;-78
2024/03/23 02:44:37;;;;;;;5.30;3.45;;;;;;;11.23;57.95;95805.56;5037716;28;20049;-78
2024/03/23 02:47:04;;;;;;;5.03;2.88;;;;;;;11.26;58.11;95809.56;5037428;28;20501;-78
2024/03/23 02:49:30;;;;;;;7.05;3.35;;;;;;;11.28;57.85;95797.09;5037830;28;20064;-78
2024/03/23 02:51:56;;;;;;;5.28;3.33;;;;;;;11.29;58.02;95791.69;5037816;28;20053;-78
2024/03/23 02:54:22;;;;;;;6.18;3.08;;;;;;;11.32;57.90;95785.25;5037432;28;20518;-78
2024/03/23 02:56:48;;;;;;;3.85;2.83;;;;;;;11.32;57.96;95783.44;5037674;28;20520;-78
2024/03/23 02:59:16;;;;;;;8.73;3.70;;;;;;;11.30;57.83;95785.47;5037869;28;20056;-78
2024/03/23 03:01:42;;;;;;;5.15;2.85;;;;;;;11.32;57.97;95782.63;5037113;28;20053;-78
2024/03/23 03:04:08;;;;;;;5.43;2.70;;;;;;;11.31;58.00;95787.06;5037313;28;20088;-78
2024/03/23 03:06:34;;;;;;;6.00;2.75;;;;;;;11.34;58.17;95786.63;5037115;28;20520;-78
2024/03/23 03:09:00;;;;;;;6.25;2.90;;;;;;;11.37;57.99;95774.19;5037682;28;20136;-78
2024/03/23 03:11:26;;;;;;;4.25;2.33;;;;;;;11.42;58.17;95777.00;5037342;28;20504;-78
2024/03/23 03:13:53;;;;;;;7.40;3.25;;;;;;;11.47;58.08;95775.34;5037254;28;20067;-78
2024/03/23 03:16:20;;;;;;;3.53;2.60;;;;;;;11.52;57.86;95780.78;5037104;28;20059;-78
2024/03/23 03:18:47;;;;;;;3.13;2.83;;;;;;;11.55;57.95;95774.31;5056116;28;20049;-78
2024/03/23 03:21:12;;;;;;;4.55;2.60;;;;;;;11.55;57.75;95759.44;5060262;28;20040;-78
2024/03/23 03:23:40;;;;;;;4.50;2.60;;;;;;;11.56;57.90;95762.84;5047599;28;20056;-78
2024/03/23 03:26:06;;;;;;;4.40;2.60;;;;;;;11.55;57.92;95754.22;5040670;28;20055;-78
2024/03/23 03:28:33;;;;;;;6.00;2.10;;;;;;;11.60;58.00;95763.25;5038312;28;20053;-78
2024/03/23 03:30:59;;;;;;;3.25;2.10;;;;;;;11.64;58.02;95754.00;5037495;28;20061;-78
2024/03/23 03:33:27;;;;;;;3.38;2.42;;;;;;;11.68;57.95;95745.53;5037745;28;20398;-78
2024/03/23 03:35:53;;;;;;;3.15;1.90;;;;;;;11.73;58.06;95752.72;5037446;28;20463;-78
2024/03/23 03:38:20;;;;;;;4.13;1.98;;;;;;;11.77;58.12;95743.47;5037044;28;20057;-78
2024/03/23 03:40:45;;;;;;;3.17;2.20;;;;;;;11.82;58.00;95738.41;5037715;28;20205;-78
2024/03/23 03:43:12;;;;;;;2.83;2.13;;;;;;;11.88;58.14;95742.81;5037304;28;20053;-78
2024/03/23 03:45:38;;;;;;;3.08;1.80;;;;;;;11.93;58.08;95739.56;5036986;28;20539;-78
2024/03/23 03:48:05;;;;;;;1.95;1.80;;;;;;;11.98;57.96;95738.94;5036938;28;20053;-78
2024/03/23 03:50:32;;;;;;;2.45;1.95;;;;;;;12.01;57.87;95728.06;5036650;28;20095;-78
2024/03/23 03:52:59;;;;;;;3.60;2.10;;;;;;;12.03;57.96;95728.66;5036911;28;20052;-78
2024/03/23 03:55:24;;;;;;;5.20;2.40;;;;;;;12.06;57.89;95728.22;5036869;28;20057;-78
2024/03/23 03:57:51;;;;;;;4.68;1.77;;;;;;;12.07;57.73;95735.03;5036650;28;20504;-78
2024/03/23 04:00:17;;;;;;;2.65;1.90;;;;;;;12.11;59.04;95728.38;5038037;28;20045;-78
2024/03/23 04:02:44;;;;;;;2.35;2.10;;;;;;;12.13;58.26;95734.19;5038075;28;20110;-78
2024/03/23 04:05:09;;;;;;;3.58;1.77;;;;;;;12.16;58.67;95725.94;5037764;28;20072;-78
2024/03/23 04:07:37;;;;;;;2.20;2.00;;;;;;;12.19;58.39;95715.06;5037849;28;20064;-79
2024/03/23 04:10:07;;;;;;;2.53;2.13;;;;;;;12.20;58.21;95721.91;5036879;28;20057;-78
2024/03/23 04:12:33;;;;;;;2.42;2.08;;;;;;;12.21;58.41;95717.47;5036019;28;20500;-78
2024/03/23 04:14:59;;;;;;;2.75;2.30;;;;;;;12.23;58.02;95721.47;5037737;23;20061;-77
2024/03/23 04:17:31;;;;;;;11.20;5.07;;;;;;;12.21;58.10;95723.50;5015723;28;20049;-78
2024/03/23 04:19:57;;;;;;;11.23;5.97;;;;;;;12.21;58.16;95712.25;5016194;28;20053;-78
2024/03/23 04:22:25;;;;;;;10.30;5.78;;;;;;;12.19;57.87;95701.19;5016220;28;20099;-78
2024/03/23 04:24:53;;;;;;;13.38;6.65;;;;;;;12.16;58.09;95699.81;5031914;28;20060;-79
2024/03/23 04:27:19;;;;;;;18.55;6.97;;;;;;;12.14;58.35;95697.41;5035789;28;20049;-78
2024/03/23 04:29:47;;;;;;;11.45;6.28;;;;;;;12.13;58.31;95703.66;5035364;28;20049;-78
2024/03/23 04:32:14;;;;;;;6.50;3.80;;;;;;;12.14;58.45;95694.00;5035610;28;20057;-78
2024/03/23 04:34:40;;;;;;;4.93;3.15;;;;;;;12.15;58.67;95693.75;5035016;28;20104;-78
2024/03/23 04:37:06;;;;;;;5.13;2.97;;;;;;;12.19;58.53;95691.53;5035197;28;20434;-78
2024/03/23 04:39:33;;;;;;;6.40;3.25;;;;;;;12.21;58.98;95665.97;5035348;28;20053;-79
2024/03/23 04:42:01;;;;;;;3.53;2.60;;;;;;;12.24;58.62;95665.53;5035384;28;20083;-79
2024/03/23 04:44:28;;;;;;;5.07;2.72;;;;;;;12.22;58.54;95645.84;5034913;28;20053;-78
2024/03/23 04:46:55;;;;;;;3.33;2.80;;;;;;;12.23;59.09;95632.56;5034749;28;20061;-78
2024/03/23 04:49:21;;;;;;;8.57;3.65;;;;;;;12.27;58.92;95633.75;5035160;28;20052;-78
2024/03/23 04:51:47;;;;;;;5.75;3.47;;;;;;;12.30;58.70;95625.44;5030372;28;20049;-78
2024/03/23 04:54:14;;;;;;;4.32;3.03;;;;;;;12.33;59.40;95630.28;5034379;28;20057;-78
2024/03/23 04:56:40;;;;;;;4.85;3.30;;;;;;;12.35;58.88;95625.63;5034643;28;20063;-78
2024/03/23 04:59:08;;;;;;;6.40;3.47;;;;;;;12.36;58.57;95624.59;5034841;28;20420;-78
2024/03/23 05:01:35;;;;;;;3.83;3.45;;;;;;;12.33;58.31;95626.81;5030722;28;20049;-78
2024/03/23 05:04:01;;;;;;;3.65;2.45;;;;;;;12.29;58.39;95610.78;5029594;28;20049;-78
2024/03/23 05:06:28;;;;;;;2.40;2.20;;;;;;;12.24;58.52;95605.41;5022656;28;20456;-78
2024/03/23 05:08:54;;;;;;;2.95;2.42;;;;;;;12.18;58.48;95608.91;5014907;28;20053;-79
2024/03/23 05:11:21;;;;;;;4.47;2.50;;;;;;;12.13;58.64;95600.88;5016188;28;20475;-76
2024/03/23 05:13:46;;;;;;;4.88;2.78;;;;;;;12.10;58.62;95590.88;5028094;28;20061;-78
2024/03/23 05:16:14;;;;;;;2.45;2.15;;;;;;;12.06;58.78;95594.91;5031678;28;20122;-76
2024/03/23 05:18:40;;;;;;;5.13;2.42;;;;;;;11.99;58.83;95586.34;5015844;28;20060;-77
2024/03/23 05:21:07;;;;;;;4.10;2.78;;;;;;;11.92;59.18;95587.19;5023300;28;20048;-77
2024/03/23 05:23:32;;;;;;;5.03;2.13;;;;;;;11.90;59.44;95589.22;5018388;28;20061;-76
2024/03/23 05:25:59;;;;;;;5.05;2.65;;;;;;;11.89;59.43;95574.56;5016341;28;20123;-78
2024/03/23 05:28:25;;;;;;;5.07;2.45;;;;;;;11.88;59.59;95578.19;5030652;28;20064;-78
2024/03/23 05:30:52;;;;;;;4.45;2.50;;;;;;;11.86;59.66;95595.06;5024540;28;20037;-78
2024/03/23 05:33:19;;;;;;;3.55;2.50;;;;;;;11.88;60.34;95651.34;5027412;28;20053;-76
2024/03/23 05:35:47;;;;;;;7.43;2.92;;;;;;;11.88;60.12;95653.19;5020925;28;20053;-76
2024/03/23 05:38:13;;;;;;;3.22;2.90;;;;;;;11.83;60.73;95632.06;5030669;28;20049;-77
2024/03/23 05:40:40;;;;;;;4.13;2.95;;;;;;;11.80;60.84;95648.97;5019772;28;20052;-77
2024/03/23 05:43:06;;;;;;;3.08;2.78;;;;;;;11.77;61.29;95665.09;5026460;28;20056;-76
2024/03/23 05:45:32;;;;;;;7.43;3.53;;;;;;;11.71;62.01;95676.38;5025883;28;20064;-77
2024/03/23 05:47:58;;;;;;;4.82;3.80;;;;;;;11.68;62.56;95710.78;5015813;28;20057;-77
2024/03/23 05:50:26;;;;;;;6.43;4.05;;;;;;;11.64;63.30;95738.31;5017076;28;20056;-77
2024/03/23 05:52:52;;;;;;;5.50;4.68;;;;;;;11.61;64.16;95733.50;5017301;28;20053;-77
2024/03/23 05:55:18;;;;;;;7.22;5.75;;;;;;;11.55;65.05;95741.16;5018815;28;20061;-77
2024/03/23 05:57:45;;;;;;;12.02;6.40;;;;;;;11.50;65.76;95735.78;5028481;28;20057;-77
2024/03/23 06:00:16;;;;;;;12.23;7.50;;;;;;;11.49;66.39;95730.75;5057748;28;20061;-77
2024/03/23 06:02:44;;;;;;;11.38;7.65;;;;;;;11.45;66.73;95726.94;5038971;28;20037;-77
2024/03/23 06:05:11;;;;;;;11.85;8.75;;;;;;;11.43;66.92;95736.81;5032217;28;20057;-77
2024/03/23 06:07:38;;;;;;;10.55;8.68;;;;;;;11.36;67.53;95736.84;5035238;28;20060;-77
2024/03/23 06:10:06;;;;;;;12.80;8.65;;;;;;;11.30;67.66;95733.25;5020470;28;20076;-77
2024/03/23 06:12:32;;;;;;;13.95;9.82;;;;;;;11.29;67.68;95738.69;5022373;28;20537;-77
2024/03/23 06:14:58;;;;;;;13.52;10.45;;;;;;;11.29;67.62;95739.47;5034305;28;20123;-77
2024/03/23 06:17:24;;;;;;;13.23;10.00;;;;;;;11.22;68.09;95730.88;5036278;28;20037;-77
2024/03/23 06:19:51;;;;;;;11.25;9.57;;;;;;;11.20;68.41;95737.31;5028430;28;20543;-77
2024/03/23 06:22:16;;;;;;;14.10;9.10;;;;;;;11.22;68.49;95738.69;5018691;28;20053;-77
2024/03/23 06:24:45;;;;;;;12.40;9.02;;;;;;;11.24;68.60;95756.75;5019103;28;20060;-79
2024/03/23 06:27:11;;;;;;;13.15;9.68;;;;;;;11.25;68.17;95763.59;5019712;28;20088;-76
2024/03/23 06:29:37;;;;;;;14.98;9.85;;;;;;;11.21;68.03;95786.69;5021048;28;20054;-75
2024/03/23 06:32:03;;;;;;;14.27;9.30;;;;;;;11.14;68.23;95791.91;5029091;28;20048;-76
2024/03/23 06:34:30;;;;;;;13.57;8.70;;;;;;;11.08;68.43;95794.56;5021612;28;20051;-76
2024/03/23 06:36:55;;;;;;;12.68;8.45;;;;;;;11.01;68.18;95791.97;5020347;28;20057;-76
2024/03/23 06:39:22;;;;;;;10.52;7.35;;;;;;;10.96;68.31;95801.41;5026173;28;20113;-76
2024/03/23 06:41:53;;;;;;;7.13;6.05;;;;;;;10.90;67.67;95789.97;5037317;28;20057;-76
2024/03/23 06:44:20;;;;;;;10.55;5.78;;;;;;;10.82;67.64;95787.56;5035492;28;20063;-76
2024/03/23 06:46:46;;;;;;;8.70;5.10;;;;;;;10.84;67.80;95798.59;5019525;28;20470;-76
2024/03/23 06:49:13;;;;;;;7.97;6.18;;;;;;;10.84;67.36;95801.22;5036333;28;20072;-76
2024/03/23 06:51:39;;;;;;;5.55;4.90;;;;;;;10.82;67.28;95803.22;5036849;28;20531;-76
2024/03/23 06:54:06;;;;;;;7.47;5.43;;;;;;;10.84;67.53;95806.44;5036508;28;20424;-76
2024/03/23 06:56:31;;;;;;;6.82;5.18;;;;;;;10.86;67.77;95822.69;5032168;28;20069;-76
2024/03/23 06:59:00;;;;;;;5.07;4.40;;;;;;;10.88;67.24;95812.84;5035391;28;20052;-76
2024/03/23 07:01:26;;;;;;;5.75;4.40;;;;;;;10.86;66.94;95812.25;5037071;28;20049;-76
2024/03/23 07:03:52;;;;;;;4.57;3.90;;;;;;;10.83;66.63;95816.06;5036484;28;20104;-76
2024/03/23 07:06:18;;;;;;;4.30;3.72;;;;;;;10.78;66.83;95828.09;5036486;28;20619;-76
2024/03/23 07:08:44;;;;;;;5.25;3.85;;;;;;;10.67;67.12;95830.34;5036485;28;20076;-76
2024/03/23 07:11:10;;;;;;;5.47;4.13;;;;;;;10.64;67.33;95822.91;5036403;28;20056;-76
2024/03/23 07:13:37;;;;;;;4.22;3.47;;;;;;;10.64;67.44;95828.13;5036462;28;20397;-76
2024/03/23 07:16:04;;;;;;;3.92;3.28;;;;;;;10.65;67.50;95821.91;5036640;28;20083;-76
2024/03/23 07:18:31;;;;;;;7.85;4.20;;;;;;;10.64;67.08;95820.28;5036287;28;20118;-76
2024/03/23 07:20:57;;;;;;;4.78;3.65;;;;;;;10.62;67.83;95827.50;5036848;28;20072;-76
2024/03/23 07:23:24;;;;;;;6.88;4.07;;;;;;;10.62;67.94;95830.13;5036465;28;20091;-76
2024/03/23 07:25:57;;;;;;;6.68;4.22;;;;;;;10.64;68.75;95828.13;5036206;28;20057;-76
2024/03/23 07:28:24;;;;;;;6.55;4.00;;;;;;;10.60;67.73;95818.28;5028848;28;20049;-75
2024/03/23 07:31:01;;;;;;;3.80;3.20;;;;;;;10.58;68.13;95823.69;5024221;28;20099;-77
2024/03/23 07:33:29;;;;;;;3.63;3.03;;;;;;;10.53;67.82;95807.84;5024690;28;20049;-79
2024/03/23 07:35:55;;;;;;;4.05;3.10;;;;;;;10.50;67.82;95816.09;5016514;28;20057;-78
2024/03/23 07:38:21;;;;;;;3.67;3.20;;;;;;;10.46;67.62;95822.72;5020564;28;20094;-79
2024/03/23 07:40:49;;;;;;;3.65;2.72;;;;;;;10.40;67.88;95831.31;5020477;28;20049;-77
2024/03/23 07:43:16;;;;;;;4.43;3.20;;;;;;;10.35;68.16;95850.16;5033942;28;20057;-78
2024/03/23 07:45:42;;;;;;;3.65;3.20;;;;;;;10.30;68.00;95858.59;5038972;28;20053;-76
2024/03/23 07:48:08;;;;;;;3.55;2.65;;;;;;;10.25;67.65;95866.16;5025127;28;20061;-78
2024/03/23 07:50:35;;;;;;;3.47;2.45;;;;;;;10.18;68.12;95865.34;5031097;28;20056;-76
2024/03/23 07:53:02;;;;;;;3.55;2.63;;;;;;;10.15;68.17;95865.75;5036408;28;20056;-77
2024/03/23 07:55:27;;;;;;;3.67;2.25;;;;;;;10.13;68.49;95867.75;5036232;28;20524;-76
2024/03/23 07:57:54;;;;;;;2.20;1.80;;;;;;;10.17;68.47;95879.38;5035922;28;20057;-77
2024/03/23 08:00:20;;;;;;;4.60;2.53;;;;;;;10.16;68.45;95888.19;5035832;28;20057;-76
2024/03/23 08:02:46;;;;;;;5.55;2.30;;;;;;;10.17;68.00;95897.63;5024041;28;20064;-77
2024/03/23 08:05:12;;;;;;;2.30;1.77;;;;;;;10.14;67.55;95911.03;5015934;28;20049;-76
2024/03/23 08:07:40;;;;;;;1.27;1.17;;;;;;;10.10;67.66;95915.03;5013899;28;20509;-76
2024/03/23 08:10:06;;;;;;;1.50;1.35;;;;;;;10.09;67.22;95918.63;5013323;28;20050;-76
2024/03/23 08:12:33;;;;;;;1.30;1.20;;;;;;;10.07;67.18;95931.06;5014180;28;20056;-76
2024/03/23 08:14:59;;;;;;;1.23;1.13;;;;;;;10.00;66.81;95919.81;5013802;28;20501;-76
2024/03/23 08:17:25;;;;;;;1.48;1.00;;;;;;;9.95;66.80;95924.78;5013887;28;20053;-76
2024/03/23 08:19:52;;;;;;;0.82;0.82;;;;;;;9.92;66.60;95936.41;5014197;28;20057;-76
2024/03/23 08:22:19;;;;;;;0.93;0.82;;;;;;;9.84;66.51;95933.97;5015440;28;20448;-76
2024/03/23 08:24:46;;;;;;;1.20;1.02;;;;;;;9.78;66.51;95945.97;5015549;28;20049;-76
2024/03/23 08:27:12;;;;;;;1.33;1.23;;;;;;;9.73;66.59;95948.34;5015234;28;20509;-76
2024/03/23 08:29:38;;;;;;;1.15;1.13;;;;;;;9.72;66.57;95944.13;5015658;28;20053;-76
2024/03/23 08:32:05;;;;;;;1.15;1.10;;;;;;;9.69;66.83;95940.09;5015635;28;20460;-75
2024/03/23 08:34:31;;;;;;;1.00;1.00;;;;;;;9.72;66.24;95949.31;5015743;28;20057;-76
2024/03/23 08:36:57;;;;;;;0.93;0.93;;;;;;;9.72;66.32;95954.53;5015790;28;20057;-76
2024/03/23 08:39:23;;;;;;;1.10;1.02;;;;;;;9.75;66.27;95959.38;5015325;28;20064;-76
2024/03/23 08:41:51;;;;;;;0.90;0.90;;;;;;;9.83;66.28;95956.59;5015438;28;20057;-76
2024/03/23 08:44:17;;;;;;;0.90;0.90;;;;;;;9.92;66.27;95964.25;5015335;28;20061;-76
2024/03/23 08:46:43;;;;;;;0.68;0.68;;;;;;;9.83;65.69;95964.41;5015171;28;20076;-75
2024/03/23 08:49:09;;;;;;;1.50;1.00;;;;;;;9.73;65.70;95978.78;5015465;28;20524;-75
2024/03/23 08:51:36;;;;;;;0.88;0.88;;;;;;;9.67;66.05;95988.16;5014935;28;20113;-76
2024/03/23 08:54:02;;;;;;;1.10;1.00;;;;;;;9.59;66.22;95986.50;5015421;28;20053;-76
2024/03/23 08:56:28;;;;;;;1.05;1.00;;;;;;;9.57;66.73;96016.34;5015332;28;20064;-75
2024/03/23 08:58:55;;;;;;;1.02;0.93;;;;;;;9.55;67.05;96032.13;5014966;28;20537;-75
2024/03/23 09:01:22;;;;;;;0.80;0.77;;;;;;;9.53;66.95;96048.94;5015028;28;20053;-75
2024/03/23 09:03:48;;;;;;;1.75;0.60;;;;;;;9.51;67.33;96063.94;5015478;28;20053;-75
2024/03/23 09:06:15;;;;;;;0.45;0.45;;;;;;;9.49;66.80;96061.56;5013804;28;20532;-75
2024/03/23 09:08:41;;;;;;;0.20;0.20;;;;;;;9.40;66.25;96062.66;5015538;28;20129;-75
2024/03/23 09:11:09;;;;;;;0.40;0.30;;;;;;;9.22;66.14;96073.50;5015486;28;20107;-75
2024/03/23 09:13:37;;;;;;;0.22;0.22;;;;;;;9.10;66.32;96082.81;5015071;28;20053;-75
2024/03/23 09:16:06;;;;;;;2.22;0.30;;;;;;;9.03;67.13;96100.94;5014407;28;20050;-75
2024/03/23 09:18:33;;;;;;;0.30;0.22;;;;;;;8.94;67.11;96112.44;5014480;28;20505;-76
2024/03/23 09:20:59;;;;;;;0.30;0.30;;;;;;;8.86;67.88;96113.38;5014667;28;20053;-75
2024/03/23 09:23:26;;;;;;;0.50;0.30;;;;;;;8.72;67.85;96109.78;5014929;28;20508;-75
2024/03/23 09:25:51;;;;;;;1.13;0.47;;;;;;;8.69;67.82;96106.78;5014743;28;20475;-76
2024/03/23 09:28:18;;;;;;;0.68;0.50;;;;;;;8.64;67.80;96092.53;5014730;28;20057;-75
2024/03/23 09:30:43;;;;;;;1.75;0.50;;;;;;;8.54;67.69;96111.97;5014288;28;20056;-76
2024/03/23 09:33:12;;;;;;;1.35;0.50;;;;;;;8.54;67.64;96104.97;5014904;28;20057;-76
2024/03/23 09:35:38;;;;;;;1.90;0.60;;;;;;;8.64;67.51;96087.31;5014911;28;20062;-75
2024/03/23 09:38:07;;;;;;;3.22;1.20;;;;;;;8.73;66.59;96103.63;5014910;28;20053;-75
2024/03/23 09:40:33;;;;;;;2.58;1.40;;;;;;;8.77;66.15;96111.88;5014728;28;20061;-75
2024/03/23 09:43:00;;;;;;;2.25;1.08;;;;;;;8.82;66.30;96109.53;5014645;28;20053;-76
2024/03/23 09:45:28;;;;;;;1.83;0.90;;;;;;;8.94;66.09;96125.47;5037766;28;20038;-76
2024/03/23 09:47:55;;;;;;;3.67;1.17;;;;;;;9.05;65.77;96128.41;5035941;28;20057;-76
2024/03/23 09:50:23;;;;;;;2.95;1.48;;;;;;;9.08;65.82;96133.22;5022547;28;20518;-75
2024/03/23 09:52:50;;;;;;;3.25;0.95;;;;;;;9.14;65.17;96149.09;5016374;28;20111;-75
2024/03/23 09:55:16;;;;;;;2.38;1.35;;;;;;;9.12;65.52;96141.47;5015187;28;20054;-75
2024/03/23 09:57:42;;;;;;;1.23;1.10;;;;;;;9.07;64.94;96152.44;5014830;28;20049;-76
2024/03/23 10:00:09;;;;;;;1.80;1.17;;;;;;;8.98;64.86;96153.53;5014547;28;20054;-75
2024/03/23 10:02:36;;;;;;;2.50;1.58;;;;;;;8.88;64.85;96142.63;5014694;28;20533;-76
2024/03/23 10:05:02;;;;;;;2.15;1.55;;;;;;;8.77;65.03;96138.69;5014138;28;20054;-76
2024/03/23 10:07:30;;;;;;;3.22;1.80;;;;;;;8.71;65.16;96131.59;5014280;28;20056;-75
2024/03/23 10:09:56;;;;;;;3.25;1.83;;;;;;;8.61;65.68;96133.66;5014754;28;20064;-75
2024/03/23 10:12:24;;;;;;;3.45;1.88;;;;;;;8.58;65.79;96136.63;5014340;28;20460;-75
2024/03/23 10:14:50;;;;;;;5.20;1.90;;;;;;;8.53;65.75;96139.78;5015542;23;20058;-74
2024/03/23 10:17:18;;;;;;;3.72;1.90;;;;;;;8.50;66.56;96147.91;5013287;28;20165;-74
2024/03/23 10:19:44;;;;;;;3.05;1.63;;;;;;;8.54;66.60;96149.19;5011761;28;20506;-75
2024/03/23 10:22:14;;;;;;;4.10;2.30;;;;;;;8.60;65.76;96148.47;5011633;28;20132;-74
2024/03/23 10:24:41;;;;;;;8.27;2.35;;;;;;;8.77;65.53;96151.69;5011773;28;20062;-74
2024/03/23 10:27:08;;;;;;;3.78;2.00;;;;;;;9.03;64.62;96160.78;5011343;28;20057;-74
2024/03/23 10:29:35;;;;;;;3.90;2.22;;;;;;;9.18;63.57;96166.78;5011345;28;20510;-74
2024/03/23 10:32:10;;;;;;;5.60;2.30;;;;;;;9.28;62.87;96156.06;4994726;28;20050;-74
2024/03/23 10:34:38;;;;;;;6.60;2.42;;;;;;;9.37;62.76;96138.53;5015838;28;20857;-74
2024/03/23 10:37:04;;;;;;;5.35;2.35;;;;;;;9.47;62.27;96139.03;5016122;28;20498;-74
2024/03/23 10:39:35;;;;;;;5.40;2.88;;;;;;;9.58;62.45;96130.72;5014966;28;20058;-75
2024/03/23 10:42:07;;;;;;;5.82;2.67;;;;;;;9.80;60.07;96126.31;5015617;28;20061;-74
2024/03/23 10:44:34;;;;;;;4.43;2.40;;;;;;;9.94;60.36;96129.00;5016298;28;20080;-74
2024/03/23 10:47:02;;;;;;;4.20;2.30;;;;;;;10.06;59.12;96127.50;5015130;28;20517;-75
2024/03/23 10:49:30;;;;;;;7.07;2.35;;;;;;;10.23;58.45;96128.81;5015477;28;20131;-74
2024/03/23 10:51:57;;;;;;;4.80;2.88;;;;;;;10.45;58.08;96120.94;5019986;28;20065;-76
2024/03/23 10:54:25;;;;;;;5.13;2.75;;;;;;;10.77;58.48;96123.91;5016426;28;20064;-77
2024/03/23 10:56:57;;;;;;;6.32;3.65;;;;;;;11.24;57.75;96127.47;5015460;28;20056;-76
2024/03/23 10:59:26;;;;;;;6.10;2.70;;;;;;;11.67;56.35;96120.09;5015635;28;20060;-75
2024/03/23 11:01:56;;;;;;;5.90;3.25;;;;;;;11.97;54.17;96121.56;5014789;28;20100;-75
2024/03/23 11:04:33;;;;;;;5.63;2.78;;;;;;;12.25;52.99;96121.34;5014682;28;20058;-75
2024/03/23 11:06:59;;;;;;;5.00;2.70;;;;;;;12.46;53.57;96115.03;5014766;28;20058;-75
2024/03/23 11:09:45;;;;;;;5.55;3.05;;;;;;;12.69;52.15;96115.38;5015231;28;20524;-74
2024/03/23 11:12:25;;;;;;;6.57;2.88;;;;;;;12.83;52.40;96117.94;5014476;28;20049;-75
2024/03/23 11:14:54;;;;;;;6.38;2.42;;;;;;;12.95;52.30;96119.72;5014612;28;20061;-75
2024/03/23 11:17:21;;;;;;;4.55;2.20;;;;;;;13.16;52.84;96116.00;5014421;28;20046;-75
2024/03/23 11:19:54;;;;;;;4.63;2.38;;;;;;;13.42;50.92;96129.97;5014391;28;20057;-75
2024/03/23 11:22:38;;;;;;;3.92;2.25;;;;;;;13.65;49.77;96128.63;5014668;28;20132;-75
2024/03/23 11:25:13;;;;;;;8.40;2.90;;;;;;;13.69;48.77;96133.22;5014429;28;20510;-75
2024/03/23 11:27:39;;;;;;;5.03;2.38;;;;;;;13.63;48.64;96138.53;5014071;28;20067;-75
2024/03/23 11:30:18;;;;;;;5.82;2.58;;;;;;;13.50;48.10;96148.06;5015148;28;20054;-75
2024/03/23 11:32:45;;;;;;;5.82;2.97;;;;;;;13.34;47.75;96141.50;5001141;28;20050;-76
2024/03/23 11:35:25;;;;;;;5.32;2.53;;;;;;;13.23;47.28;96149.19;4994241;28;20108;-77